메인 페이지
METAR-TAF:

METAR-TAF

공항 :

Nantucket, 매사추세츠, 미국

위도: 41-15-14N, 경도: 070-03-35W, 고도: 14m

현재 날씨관측

예보는 23분 전, 22:26시(UTC)에 발표되었습니다.
북북동14kt
온도 3°C
습도 65%
기압 1016 hPa
시정: 16.1km
고도 2500ft 상공 구름 조금

METAR: KACK 312226Z 02014KT 10SM FEW025 03/M03 A2999 RMK AO2 T00281028

시각: 18:49 (22:49 UTC)

예보

예보는 2 시간 28분 전, 20:21시(UTC)에 발표되었습니다.
예보 대상 시간: 31일 20시부터 01일 18시까지 (UTC)
북북동13kt
시정: 10km
고도 3000ft 상공 흐림
31일 2300시부터 (UTC)
북북동13kt, 순간 최대 풍속 20kt
시정: 10km
고도 3000ft 상공 구름 보통
01일 0600시부터 (UTC)
북북동11kt, 순간 최대 풍속 19kt
시정: 10km
고도 2500ft 상공 흐림

TAF: KACK 312021Z 3120/0118 02013KT P6SM OVC030 FM312300 02013G20KT P6SM SCT030 FM010600 03011G19KT P6SM OVC025

4,000개 이상의 공항 관측 자료 및 예보 (METAR 및 TAF 보고).

지도상에서 검색 가능한 기상관측소가 노란 점과 빨간 점으로 표시되어 있습니다.

기상관측소 명을 보려면 표시 위로 마우스를 이동하세요.

날씨 관측과 예보를 보려면 클릭하세요.

지도 변경 : 확대하려면 엑스 표시가 있는 녹색 버튼, 축소하려면 빼기 표시가 있는 녹색 버튼, 다음 페이지의 지도를 보려면 녹색 화살표를 클릭하세요.


METAR-TAF: